Time;durP1;ratioP1;P1;durP2;ratioP2;P2;SDS_P1;SDS_P2;PMS_P1;PMS_P2;Temp;Humidity;BMP_temperature;BMP_pressure;BME280_temperature;BME280_humidity;BME280_pressure;Samples;Min_cycle;Max_cycle;Signal;HPM_P1;HPM_P2
2023/04/22 00:01:02;;;;;;;14.03;7.57;;;8.30;99.90;;;;;;5077073;28;20066;-71
2023/04/22 00:03:29;;;;;;;14.20;6.87;;;8.20;99.90;;;;;;5077714;28;20036;-62
2023/04/22 00:05:55;;;;;;;12.57;7.32;;;8.20;99.90;;;;;;5077212;28;20055;-63
2023/04/22 00:08:21;;;;;;;10.10;6.50;;;8.20;99.90;;;;;;5077598;28;20415;-62
2023/04/22 00:10:46;;;;;;;15.47;8.00;;;8.20;99.90;;;;;;5077102;28;20363;-63
2023/04/22 00:13:12;;;;;;;12.90;7.60;;;8.20;99.90;;;;;;5077485;28;20043;-62
2023/04/22 00:15:38;;;;;;;16.33;7.97;;;8.20;99.90;;;;;;5077792;28;20312;-62
2023/04/22 00:18:03;;;;;;;13.63;7.27;;;8.20;99.90;;;;;;5075949;28;20029;-62
2023/04/22 00:20:31;;;;;;;15.07;8.27;;;8.20;99.90;;;;;;5077526;28;20438;-63
2023/04/22 00:22:57;;;;;;;16.63;8.38;;;8.20;99.90;;;;;;5076982;28;20020;-63
2023/04/22 00:25:23;;;;;;;11.97;8.00;;;8.20;99.90;;;;;;5077443;28;20024;-62
2023/04/22 00:27:48;;;;;;;13.83;8.77;;;8.30;99.90;;;;;;5077347;28;20426;-74
2023/04/22 00:30:14;;;;;;;15.47;8.20;;;8.20;99.90;;;;;;5076603;28;20335;-62
2023/04/22 00:32:40;;;;;;;13.13;7.47;;;8.20;99.90;;;;;;5076941;28;20062;-62
2023/04/22 00:35:06;;;;;;;14.30;7.57;;;8.10;99.90;;;;;;5077060;28;20029;-62
2023/04/22 00:37:32;;;;;;;13.60;7.55;;;8.10;99.90;;;;;;5077250;28;20032;-63
2023/04/22 00:39:58;;;;;;;10.30;7.63;;;8.00;99.90;;;;;;5076607;28;20029;-63
2023/04/22 00:42:25;;;;;;;14.27;8.33;;;8.00;99.90;;;;;;5077245;28;20024;-62
2023/04/22 00:44:51;;;;;;;15.02;8.10;;;7.90;99.90;;;;;;5076634;28;20032;-62
2023/04/22 00:47:18;;;;;;;11.80;7.07;;;7.80;99.90;;;;;;5076823;28;20067;-63
2023/04/22 00:49:44;;;;;;;12.80;7.65;;;7.90;99.90;;;;;;5076944;28;20029;-62
2023/04/22 00:52:09;;;;;;;14.47;8.60;;;7.80;99.90;;;;;;5076327;28;20055;-69
2023/04/22 00:54:35;;;;;;;13.03;7.57;;;7.80;99.90;;;;;;5075246;28;20455;-63
2023/04/22 00:57:02;;;;;;;11.93;8.43;;;7.80;99.90;;;;;;5076436;28;20024;-62
2023/04/22 00:59:28;;;;;;;12.75;7.90;;;7.70;99.90;;;;;;5076635;28;20253;-62
2023/04/22 01:01:55;;;;;;;28.08;7.88;;;7.60;99.90;;;;;;5076331;28;20047;-62
2023/04/22 01:04:21;;;;;;;15.52;8.45;;;7.70;99.90;;;;;;5074855;28;20056;-63
2023/04/22 01:06:50;;;;;;;14.55;8.05;;;7.60;99.90;;;;;;5075058;28;20123;-62
2023/04/22 01:09:18;;;;;;;13.35;8.65;;;7.60;99.90;;;;;;5076651;28;20111;-62
2023/04/22 01:11:45;;;;;;;11.75;7.97;;;7.60;99.90;;;;;;5075875;28;20024;-63
2023/04/22 01:14:10;;;;;;;11.43;7.00;;;7.40;99.90;;;;;;5076532;28;20024;-62
2023/04/22 01:16:37;;;;;;;13.17;7.67;;;7.40;99.90;;;;;;5075899;28;20082;-62
2023/04/22 01:19:05;;;;;;;24.45;7.15;;;7.40;99.90;;;;;;5076250;28;20040;-74
2023/04/22 01:21:32;;;;;;;13.45;8.40;;;7.40;99.90;;;;;;5075619;28;20074;-62
2023/04/22 01:24:01;;;;;;;15.30;9.40;;;7.40;99.90;;;;;;5076472;28;20025;-62
2023/04/22 01:26:27;;;;;;;11.88;7.95;;;7.30;99.90;;;;;;5075496;28;20292;-62
2023/04/22 01:28:53;;;;;;;14.57;9.07;;;7.30;99.90;;;;;;5075929;28;20040;-63
2023/04/22 01:31:19;;;;;;;16.00;8.97;;;7.30;99.90;;;;;;5075785;28;20082;-62
2023/04/22 01:33:45;;;;;;;14.43;8.60;;;7.20;99.90;;;;;;5075645;28;20096;-62
2023/04/22 01:36:11;;;;;;;15.38;8.60;;;7.20;99.90;;;;;;5075656;28;20411;-75
2023/04/22 01:38:37;;;;;;;14.40;8.57;;;7.10;99.90;;;;;;5075464;28;20081;-62
2023/04/22 01:41:03;;;;;;;18.67;8.93;;;7.10;99.90;;;;;;5075866;28;20024;-62
2023/04/22 01:43:29;;;;;;;14.43;8.87;;;7.10;99.90;;;;;;5075447;28;20028;-63
2023/04/22 01:45:56;;;;;;;16.23;8.68;;;7.00;99.90;;;;;;5075807;28;20130;-74
2023/04/22 01:48:22;;;;;;;17.92;10.00;;;6.90;99.90;;;;;;5075934;28;20028;-62
2023/04/22 01:50:48;;;;;;;17.40;10.30;;;7.00;99.90;;;;;;5074905;28;20017;-62
2023/04/22 01:53:13;;;;;;;17.97;10.17;;;7.00;99.90;;;;;;5075887;28;20025;-77
2023/04/22 01:55:40;;;;;;;23.17;9.70;;;6.90;99.90;;;;;;5075057;28;20056;-62
2023/04/22 01:58:06;;;;;;;40.97;9.23;;;6.90;99.90;;;;;;5075421;28;20028;-62
2023/04/22 02:00:31;;;;;;;15.57;8.93;;;7.00;99.90;;;;;;5075089;28;20111;-62
2023/04/22 02:02:57;;;;;;;16.80;9.30;;;7.00;99.90;;;;;;5075061;28;20037;-63
2023/04/22 02:05:23;;;;;;;16.27;8.30;;;6.90;99.90;;;;;;5074686;28;20078;-62
2023/04/22 02:07:52;;;;;;;46.67;7.73;;;6.90;99.90;;;;;;5074984;28;20027;-62
2023/04/22 02:10:19;;;;;;;89.75;8.23;;;6.80;99.90;;;;;;5075604;28;20031;-63
2023/04/22 02:12:44;;;;;;;13.82;5.80;;;6.70;99.90;;;;;;5074948;28;20059;-62
2023/04/22 02:15:10;;;;;;;13.33;5.83;;;6.60;99.90;;;;;;5075387;28;20056;-62
2023/04/22 02:17:37;;;;;;;343.33;12.97;;;6.60;99.90;;;;;;5074799;28;20024;-62
2023/04/22 02:20:04;;;;;;;25.52;5.47;;;6.50;99.90;;;;;;5075463;28;20033;-62
2023/04/22 02:22:30;;;;;;;;;;;6.40;99.90;;;;;;5075348;28;20037;-62
2023/04/22 02:24:56;;;;;;;49.80;6.30;;;6.40;99.90;;;;;;5074922;28;20262;-62
2023/04/22 02:27:22;;;;;;;87.63;5.87;;;6.40;99.90;;;;;;5075222;28;20048;-75
2023/04/22 02:29:47;;;;;;;307.80;11.20;;;6.40;99.90;;;;;;5074635;28;20044;-62
2023/04/22 02:32:16;;;;;;;263.87;9.77;;;6.20;99.90;;;;;;5074882;28;20052;-62
2023/04/22 02:34:42;;;;;;;72.32;6.30;;;6.10;99.90;;;;;;5074512;28;20028;-63
2023/04/22 02:37:07;;;;;;;28.10;6.63;;;6.10;99.90;;;;;;5075115;28;20032;-62
2023/04/22 02:39:33;;;;;;;65.50;7.80;;;6.10;99.90;;;;;;5075276;28;20297;-62
2023/04/22 02:41:58;;;;;;;67.43;5.47;;;6.10;99.90;;;;;;5074417;28;20095;-62
2023/04/22 02:44:24;;;;;;;70.90;6.20;;;6.10;99.90;;;;;;5075029;28;20078;-70
2023/04/22 02:46:50;;;;;;;16.23;4.93;;;6.00;99.90;;;;;;5074433;28;20032;-62
2023/04/22 02:49:15;;;;;;;103.33;7.20;;;5.90;99.90;;;;;;5074923;28;20039;-62
2023/04/22 02:51:41;;;;;;;12.43;6.27;;;5.90;99.90;;;;;;5074640;28;20032;-63
2023/04/22 02:54:07;;;;;;;12.80;7.43;;;6.00;99.90;;;;;;5075180;28;20443;-63
2023/04/22 02:56:32;;;;;;;95.50;10.67;;;6.10;99.90;;;;;;5074779;28;20028;-62
2023/04/22 02:58:58;;;;;;;191.17;12.80;;;6.20;99.90;;;;;;5074506;28;20037;-62
2023/04/22 03:01:24;;;;;;;73.90;10.67;;;6.30;99.90;;;;;;5074467;28;20028;-75
2023/04/22 03:03:49;;;;;;;213.30;14.47;;;6.20;99.90;;;;;;5073920;28;20052;-63
2023/04/22 03:06:15;;;;;;;398.00;18.87;;;6.30;99.90;;;;;;5074216;28;20391;-62
2023/04/22 03:08:40;;;;;;;342.70;17.10;;;6.20;99.90;;;;;;5075026;28;20300;-63
2023/04/22 03:11:06;;;;;;;102.87;11.13;;;6.00;99.90;;;;;;5074157;28;20024;-63
2023/04/22 03:13:32;;;;;;;176.13;11.07;;;6.00;99.90;;;;;;5074588;28;20029;-63
2023/04/22 03:15:57;;;;;;;140.77;7.30;;;6.00;99.90;;;;;;5074846;28;20112;-62
2023/04/22 03:18:23;;;;;;;239.83;13.03;;;6.00;99.90;;;;;;5078442;28;20441;-62
2023/04/22 03:20:49;;;;;;;96.90;7.30;;;5.90;99.90;;;;;;5078768;28;20032;-63
2023/04/22 03:23:14;;;;;;;222.10;12.10;;;5.90;99.90;;;;;;5078106;28;20731;-62
2023/04/22 03:25:40;;;;;;;292.30;13.43;;;5.80;99.90;;;;;;5078219;28;20078;-63
2023/04/22 03:28:06;;;;;;;167.93;9.10;;;5.80;99.90;;;;;;5077924;28;20025;-75
2023/04/22 03:30:31;;;;;;;232.90;11.27;;;5.90;99.90;;;;;;5078360;28;20025;-63
2023/04/22 03:32:57;;;;;;;590.27;24.63;;;5.80;99.90;;;;;;5077875;28;20082;-62
2023/04/22 03:35:23;;;;;;;264.10;10.83;;;5.80;99.90;;;;;;5078170;28;20048;-62
2023/04/22 03:37:49;;;;;;;215.43;10.70;;;5.70;99.90;;;;;;5078234;28;20062;-63
2023/04/22 03:40:15;;;;;;;8.00;5.93;;;5.70;99.90;;;;;;5077577;28;20131;-63
2023/04/22 03:42:40;;;;;;;22.47;10.47;;;5.60;99.90;;;;;;5077985;28;20029;-63
2023/04/22 03:45:06;;;;;;;18.90;11.20;;;5.70;99.90;;;;;;5077614;28;20033;-74
2023/04/22 03:47:32;;;;;;;50.50;12.23;;;5.70;99.90;;;;;;5078152;28;20028;-63
2023/04/22 03:49:58;;;;;;;128.73;14.40;;;5.80;99.90;;;;;;5077521;28;20399;-63
2023/04/22 03:52:23;;;;;;;23.60;7.90;;;5.80;99.90;;;;;;5077608;28;20031;-63
2023/04/22 03:54:49;;;;;;;426.63;25.40;;;5.80;99.90;;;;;;5077893;28;20024;-63
2023/04/22 03:57:15;;;;;;;21.03;8.60;;;5.70;99.90;;;;;;5077499;28;20387;-63
2023/04/22 03:59:40;;;;;;;45.97;9.17;;;5.70;99.90;;;;;;5077839;28;20043;-63
2023/04/22 04:02:07;;;;;;;44.80;6.50;;;5.70;99.90;;;;;;5077399;28;20028;-62
2023/04/22 04:04:33;;;;;;;30.05;6.43;;;5.60;99.90;;;;;;5077315;28;20109;-62
2023/04/22 04:06:59;;;;;;;28.63;6.22;;;5.60;99.90;;;;;;5077930;28;20017;-62
2023/04/22 04:09:25;;;;;;;69.28;7.70;;;5.60;99.90;;;;;;5077203;28;20025;-62
2023/04/22 04:11:51;;;;;;;15.93;6.10;;;5.50;99.90;;;;;;5077439;28;20017;-74
2023/04/22 04:14:17;;;;;;;11.20;7.03;;;5.50;99.90;;;;;;5077134;28;20470;-63
2023/04/22 04:16:43;;;;;;;15.00;9.23;;;5.40;99.90;;;;;;5077380;28;20062;-63
2023/04/22 04:19:09;;;;;;;24.20;7.22;;;5.50;99.90;;;;;;5077404;28;20036;-63
2023/04/22 04:21:35;;;;;;;19.30;10.47;;;5.50;99.90;;;;;;5076841;28;20033;-63
2023/04/22 04:24:02;;;;;;;21.80;12.47;;;5.60;99.90;;;;;;5077361;28;20032;-62
2023/04/22 04:26:28;;;;;;;22.63;12.15;;;5.70;99.90;;;;;;5075499;28;20047;-63
2023/04/22 04:28:54;;;;;;;21.23;12.60;;;5.80;99.90;;;;;;5076254;28;20080;-75
2023/04/22 04:31:20;;;;;;;17.60;10.68;;;6.00;99.90;;;;;;5075722;28;20024;-63
2023/04/22 04:33:46;;;;;;;16.75;9.60;;;6.10;99.90;;;;;;5077078;28;20050;-63
2023/04/22 04:36:12;;;;;;;19.83;11.53;;;6.00;99.90;;;;;;5077161;28;20028;-62
2023/04/22 04:38:38;;;;;;;13.93;9.63;;;6.00;99.90;;;;;;5076824;28;20032;-64
2023/04/22 04:41:04;;;;;;;17.17;9.53;;;6.00;99.90;;;;;;5076880;28;20513;-63
2023/04/22 04:43:30;;;;;;;17.07;10.63;;;6.00;99.90;;;;;;5076568;28;20043;-63
2023/04/22 04:45:56;;;;;;;17.17;8.82;;;6.10;99.90;;;;;;5076709;28;20036;-64
2023/04/22 04:48:25;;;;;;;43.90;8.77;;;6.10;99.90;;;;;;5076461;28;20029;-63
2023/04/22 04:50:52;;;;;;;12.07;7.70;;;6.20;99.90;;;;;;5076625;28;20408;-63
2023/04/22 04:53:20;;;;;;;21.10;10.75;;;6.20;99.90;;;;;;5076304;28;20031;-63
2023/04/22 04:55:46;;;;;;;25.33;9.88;;;6.20;99.90;;;;;;5076650;28;20035;-63
2023/04/22 04:58:12;;;;;;;15.37;9.87;;;6.40;99.90;;;;;;5076625;28;20107;-63
2023/04/22 05:00:39;;;;;;;16.03;10.10;;;6.40;99.90;;;;;;5076191;28;20315;-63
2023/04/22 05:03:04;;;;;;;;;;;6.40;99.90;;;;;;5076622;28;20502;-66
2023/04/22 05:05:30;;;;;;;16.17;8.93;;;6.50;99.90;;;;;;5076354;28;20007;-63
2023/04/22 05:07:56;;;;;;;17.90;10.73;;;6.50;99.90;;;;;;5076154;28;20021;-63
2023/04/22 05:10:21;;;;;;;17.53;10.27;;;6.60;99.90;;;;;;5076275;28;20056;-63
2023/04/22 05:12:47;;;;;;;22.40;13.33;;;6.60;99.90;;;;;;5075881;28;20028;-63
2023/04/22 05:15:14;;;;;;;30.13;16.20;;;6.60;99.90;;;;;;5076526;28;20028;-63
2023/04/22 05:17:39;;;;;;;25.13;13.88;;;6.70;99.90;;;;;;5076387;28;20028;-62
2023/04/22 05:20:06;;;;;;;29.07;14.37;;;6.80;99.90;;;;;;5076111;28;20378;-63
2023/04/22 05:22:33;;;;;;;22.20;12.55;;;6.80;99.90;;;;;;5076190;28;20078;-63
2023/04/22 05:24:58;;;;;;;;;;;6.80;99.90;;;;;;5076011;28;20033;-63
2023/04/22 05:27:24;;;;;;;21.27;12.17;;;6.80;99.90;;;;;;5076068;28;20299;-63
2023/04/22 05:29:50;;;;;;;29.27;14.57;;;6.80;99.90;;;;;;5075404;28;20451;-63
2023/04/22 05:32:15;;;;;;;26.87;15.57;;;6.80;99.90;;;;;;5076309;28;20028;-63
2023/04/22 05:34:41;;;;;;;29.23;16.90;;;6.90;99.90;;;;;;5075385;28;20031;-63
2023/04/22 05:37:08;;;;;;;26.77;15.10;;;7.00;99.90;;;;;;5075839;28;20029;-64
2023/04/22 05:39:34;;;;;;;29.92;16.92;;;7.00;99.90;;;;;;5074718;28;20442;-63
2023/04/22 05:42:00;;;;;;;27.63;15.73;;;7.10;99.90;;;;;;5075594;28;20042;-62
2023/04/22 05:44:26;;;;;;;27.27;16.57;;;7.10;99.90;;;;;;5075878;28;20029;-63
2023/04/22 05:46:52;;;;;;;28.40;16.67;;;7.20;99.90;;;;;;5075284;28;20047;-63
2023/04/22 05:49:17;;;;;;;28.43;15.67;;;7.20;99.90;;;;;;5075503;28;20027;-63
2023/04/22 05:51:43;;;;;;;27.63;16.60;;;7.30;99.90;;;;;;5075254;28;20024;-63
2023/04/22 05:54:09;;;;;;;29.73;16.73;;;7.30;99.90;;;;;;5076240;28;20028;-63
2023/04/22 05:56:35;;;;;;;30.00;17.27;;;7.40;99.90;;;;;;5075971;28;20477;-63
2023/04/22 05:59:00;;;;;;;26.53;16.10;;;7.40;99.90;;;;;;5074886;28;20043;-63
2023/04/22 06:01:26;;;;;;;26.80;16.30;;;7.50;99.90;;;;;;5075634;28;20029;-63
2023/04/22 06:03:52;;;;;;;28.80;16.53;;;7.60;99.90;;;;;;5075454;28;20449;-76
2023/04/22 06:06:17;;;;;;;26.70;15.57;;;7.60;99.90;;;;;;5074963;28;20099;-75
2023/04/22 06:08:43;;;;;;;25.13;15.33;;;7.70;99.90;;;;;;5075400;28;20024;-63
2023/04/22 06:11:09;;;;;;;29.30;16.73;;;7.80;99.90;;;;;;5074713;28;20099;-62
2023/04/22 06:13:35;;;;;;;29.83;16.48;;;7.80;99.90;;;;;;5075451;28;20033;-63
2023/04/22 06:16:00;;;;;;;30.93;16.93;;;7.80;99.90;;;;;;5075077;28;20360;-63
2023/04/22 06:18:26;;;;;;;31.60;16.20;;;7.90;99.90;;;;;;5075411;28;20020;-63
2023/04/22 06:20:52;;;;;;;25.83;14.97;;;8.00;99.90;;;;;;5075138;28;20020;-76
2023/04/22 06:23:18;;;;;;;28.13;16.97;;;8.00;99.90;;;;;;5075001;28;20301;-63
2023/04/22 06:25:43;;;;;;;30.87;17.20;;;8.10;99.90;;;;;;5074839;28;20099;-63
2023/04/22 06:28:09;;;;;;;33.90;18.70;;;8.20;99.90;;;;;;5073463;28;20411;-63
2023/04/22 06:30:35;;;;;;;31.93;18.10;;;8.20;99.90;;;;;;5075024;28;20108;-63
2023/04/22 06:33:00;;;;;;;29.77;18.20;;;8.30;99.90;;;;;;5074734;28;20027;-63
2023/04/22 06:35:26;;;;;;;32.43;18.67;;;8.40;99.90;;;;;;5075159;28;20457;-63
2023/04/22 06:37:52;;;;;;;32.80;19.10;;;8.40;99.90;;;;;;5075029;28;20365;-75
2023/04/22 06:40:17;;;;;;;30.93;18.90;;;8.50;99.90;;;;;;5073457;28;20419;-64
2023/04/22 06:42:43;;;;;;;34.40;19.77;;;8.60;99.90;;;;;;5075178;28;20024;-64
2023/04/22 06:45:11;;;;;;;41.37;21.47;;;8.70;99.90;;;;;;5074730;28;20020;-63
2023/04/22 06:47:40;;;;;;;35.55;19.20;;;8.70;99.90;;;;;;5074726;28;20415;-64
2023/04/22 06:50:07;;;;;;;37.75;20.77;;;8.90;99.90;;;;;;5074528;28;20036;-63
2023/04/22 06:52:33;;;;;;;35.85;20.88;;;8.90;99.90;;;;;;5080989;28;20100;-63
2023/04/22 06:54:59;;;;;;;37.47;20.33;;;9.00;99.90;;;;;;5081101;28;20165;-63
2023/04/22 06:57:24;;;;;;;35.17;20.80;;;9.00;99.90;;;;;;5081530;28;20046;-63
2023/04/22 06:59:50;;;;;;;35.93;21.27;;;9.10;99.90;;;;;;5081240;28;20044;-63
2023/04/22 07:02:16;;;;;;;36.37;20.17;;;9.30;99.90;;;;;;5080870;28;20033;-63
2023/04/22 07:04:42;;;;;;;36.23;20.30;;;9.30;99.90;;;;;;5081224;28;20035;-63
2023/04/22 07:07:07;;;;;;;34.80;20.20;;;9.40;99.90;;;;;;5081834;28;20024;-63
2023/04/22 07:09:34;;;;;;;34.03;20.53;;;9.50;99.90;;;;;;5081015;28;20069;-62
2023/04/22 07:12:01;;;;;;;37.90;20.55;;;9.50;99.90;;;;;;5080055;28;20063;-75
2023/04/22 07:14:27;;;;;;;33.50;19.65;;;9.60;99.90;;;;;;5080800;28;20288;-63
2023/04/22 07:16:53;;;;;;;35.60;20.70;;;9.70;99.90;;;;;;5081440;28;20033;-63
2023/04/22 07:19:18;;;;;;;32.37;19.03;;;9.90;99.90;;;;;;5080899;28;20024;-63
2023/04/22 07:21:44;;;;;;;33.90;19.80;;;10.00;99.90;;;;;;5081457;28;20430;-63
2023/04/22 07:24:11;;;;;;;35.17;19.53;;;10.10;99.90;;;;;;5081181;28;20111;-62
2023/04/22 07:26:41;;;;;;;33.00;18.40;;;10.30;99.90;;;;;;5080616;28;20441;-63
2023/04/22 07:29:07;;;;;;;31.52;18.23;;;10.40;99.90;;;;;;5081041;28;20048;-63
2023/04/22 07:31:34;;;;;;;28.60;17.63;;;10.50;99.90;;;;;;5081041;28;20300;-63
2023/04/22 07:34:00;;;;;;;31.52;16.90;;;10.50;99.90;;;;;;5081153;28;20043;-62
2023/04/22 07:36:26;;;;;;;25.63;17.37;;;10.70;99.90;;;;;;5080737;28;20411;-62
2023/04/22 07:38:52;;;;;;;;;;;10.80;99.90;;;;;;5081688;28;20339;-63
2023/04/22 07:41:18;;;;;;;30.47;16.47;;;10.80;99.90;;;;;;5081533;28;19904;-62
2023/04/22 07:43:44;;;;;;;29.10;15.47;;;10.90;99.90;;;;;;5079540;28;20029;-62
2023/04/22 07:46:10;;;;;;;25.73;16.67;;;11.00;99.90;;;;;;5080850;28;20031;-77
2023/04/22 07:48:35;;;;;;;30.73;16.83;;;11.20;99.90;;;;;;5080756;28;20089;-63
2023/04/22 07:51:01;;;;;;;26.87;16.80;;;11.50;99.90;;;;;;5079846;28;20029;-63
2023/04/22 07:53:27;;;;;;;25.17;15.83;;;11.90;99.90;;;;;;5080565;28;20128;-63
2023/04/22 07:55:54;;;;;;;24.17;15.43;;;12.10;99.90;;;;;;5080906;28;20029;-63
2023/04/22 07:58:20;;;;;;;22.50;14.45;;;12.10;99.90;;;;;;5081279;28;20029;-63
2023/04/22 08:00:45;;;;;;;22.50;13.00;;;12.10;99.90;;;;;;5080716;28;20357;-62
2023/04/22 08:03:12;;;;;;;24.63;15.10;;;12.30;99.90;;;;;;5077630;28;20107;-79
2023/04/22 08:05:37;;;;;;;26.45;15.27;;;12.50;99.90;;;;;;5077402;28;20421;-63
2023/04/22 08:08:04;;;;;;;23.57;14.17;;;12.80;99.90;;;;;;5077311;28;20024;-77
2023/04/22 08:10:30;;;;;;;21.48;13.77;;;12.90;99.90;;;;;;5077810;28;20024;-63
2023/04/22 08:12:55;;;;;;;22.70;13.93;;;13.20;99.90;;;;;;5077470;28;20055;-64
2023/04/22 08:15:21;;;;;;;28.50;15.20;;;13.50;99.90;;;;;;5077495;28;20442;-63
2023/04/22 08:17:47;;;;;;;19.60;13.37;;;13.70;99.90;;;;;;5077026;28;20331;-63
2023/04/22 08:20:14;;;;;;;19.58;13.05;;;14.00;99.90;;;;;;5077670;28;20043;-75
2023/04/22 08:22:41;;;;;;;21.27;13.82;;;14.30;99.90;;;;;;5077324;28;20466;-63
2023/04/22 08:25:08;;;;;;;24.55;13.30;;;14.80;99.90;;;;;;5063402;28;20078;-63
2023/04/22 08:27:34;;;;;;;;;;;15.10;99.90;;;;;;5077890;28;20017;-63
2023/04/22 08:29:59;;;;;;;14.93;8.80;;;15.50;99.90;;;;;;5076752;28;19926;-63
2023/04/22 08:32:25;;;;;;;12.37;7.63;;;15.80;99.90;;;;;;5077185;28;20029;-63
2023/04/22 08:34:51;;;;;;;13.73;8.73;;;16.00;99.90;;;;;;5076796;28;20031;-63
2023/04/22 08:37:17;;;;;;;15.93;10.20;;;16.20;99.90;;;;;;5077078;28;20059;-63
2023/04/22 08:39:43;;;;;;;15.63;9.57;;;16.40;99.90;;;;;;5076892;28;20032;-63
2023/04/22 08:42:09;;;;;;;17.63;9.10;;;16.40;99.90;;;;;;5076876;28;20178;-63
2023/04/22 08:44:37;;;;;;;15.77;9.63;;;15.70;99.90;;;;;;5077023;28;20111;-63
2023/04/22 08:47:03;;;;;;;15.65;10.05;;;15.40;99.90;;;;;;5076538;28;20031;-63
2023/04/22 08:49:29;;;;;;;14.38;9.63;;;15.40;99.90;;;;;;5076842;28;20028;-63
2023/04/22 08:51:55;;;;;;;13.03;9.50;;;15.80;99.90;;;;;;5075140;28;20071;-63
2023/04/22 08:54:23;;;;;;;15.77;10.60;;;16.10;99.90;;;;;;5075378;28;20056;-63
2023/04/22 08:56:49;;;;;;;15.32;9.43;;;16.60;99.90;;;;;;5076024;28;20358;-63
2023/04/22 08:59:15;;;;;;;18.95;10.00;;;16.80;99.90;;;;;;5076608;28;20033;-63
2023/04/22 09:01:42;;;;;;;15.05;9.55;;;17.10;99.90;;;;;;5076217;28;20038;-63
2023/04/22 09:04:13;;;;;;;13.40;8.88;;;17.40;99.90;;;;;;5076185;28;20032;-64
2023/04/22 09:06:38;;;;;;;12.18;8.70;;;17.80;99.90;;;;;;5076494;28;20029;-64
2023/04/22 09:09:04;;;;;;;14.30;9.43;;;18.10;99.90;;;;;;5076002;28;20093;-64
2023/04/22 09:11:31;;;;;;;16.13;9.40;;;18.30;99.90;;;;;;5076269;28;20025;-64
2023/04/22 09:13:56;;;;;;;;;;;18.40;99.90;;;;;;5076461;28;20438;-64
2023/04/22 09:16:22;;;;;;;12.15;8.88;;;18.50;99.90;;;;;;5075929;28;19908;-64
2023/04/22 09:18:49;;;;;;;14.33;9.27;;;18.60;99.90;;;;;;5076155;28;20104;-64
2023/04/22 09:21:15;;;;;;;13.77;8.52;;;18.70;99.90;;;;;;5075815;28;20111;-63
2023/04/22 09:23:52;;;;;;;15.07;8.80;;;18.90;99.90;;;;;;5076197;28;20111;-64
2023/04/22 09:26:23;;;;;;;12.00;8.07;;;19.00;99.90;;;;;;5075722;28;20479;-64
2023/04/22 09:28:50;;;;;;;12.63;8.88;;;18.90;99.90;;;;;;5075819;28;20366;-64
2023/04/22 09:31:16;;;;;;;10.70;7.93;;;19.00;99.90;;;;;;5075800;28;20087;-64
2023/04/22 09:33:53;;;;;;;11.40;8.10;;;19.20;99.90;;;;;;5076031;28;20074;-64
2023/04/22 09:36:36;;;;;;;12.05;7.50;;;19.20;99.90;;;;;;5075634;28;20025;-64
2023/04/22 09:39:07;;;;;;;12.93;7.93;;;18.80;99.90;;;;;;5076035;28;20031;-63
2023/04/22 09:41:38;;;;;;;9.15;6.55;;;18.40;99.90;;;;;;5075684;28;20066;-77
2023/04/22 09:44:15;;;;;;;10.10;7.20;;;18.10;99.90;;;;;;5075821;28;20036;-63
2023/04/22 09:46:42;;;;;;;10.98;7.55;;;18.40;99.90;;;;;;5075193;28;20024;-64
2023/04/22 09:49:08;;;;;;;10.55;7.13;;;18.50;99.90;;;;;;5075591;28;20051;-63
2023/04/22 09:51:38;;;;;;;11.50;7.32;;;18.60;99.90;;;;;;5075697;28;20025;-77
2023/04/22 09:54:08;;;;;;;12.77;6.97;;;18.80;99.90;;;;;;5062352;28;20082;-78
2023/04/22 09:56:41;;;;;;;10.20;6.32;;;18.90;99.90;;;;;;5075408;28;20026;-64
2023/04/22 09:59:07;;;;;;;11.50;7.35;;;18.80;99.90;;;;;;5061460;28;20030;-75
2023/04/22 10:01:39;;;;;;;11.57;7.00;;;18.40;99.90;;;;;;5075712;28;20058;-77
2023/04/22 10:04:07;;;;;;;10.35;6.85;;;17.40;99.90;;;;;;5073114;28;20044;-64
2023/04/22 10:06:33;;;;;;;10.40;6.15;;;16.90;99.90;;;;;;5074779;28;20027;-63
2023/04/22 10:08:59;;;;;;;10.98;6.97;;;17.10;99.90;;;;;;5074734;28;20071;-76
2023/04/22 10:11:25;;;;;;;10.75;7.63;;;17.20;99.90;;;;;;5074219;28;20364;-63
2023/04/22 10:13:50;;;;;;;11.90;7.70;;;17.30;99.90;;;;;;5074779;28;20055;-64
2023/04/22 10:16:19;;;;;;;12.00;7.80;;;17.50;99.90;;;;;;5074540;28;20070;-63
2023/04/22 10:18:46;;;;;;;11.38;7.45;;;18.10;99.90;;;;;;5074338;28;20107;-64
2023/04/22 10:21:13;;;;;;;10.80;6.97;;;18.30;99.90;;;;;;5074181;28;20362;-77
2023/04/22 10:23:45;;;;;;;11.10;8.15;;;18.20;99.90;;;;;;5074526;28;20115;-64
2023/04/22 10:26:11;;;;;;;15.80;10.00;;;17.70;99.90;;;;;;5074026;28;20415;-64
2023/04/22 10:28:42;;;;;;;15.13;9.83;;;16.90;99.90;;;;;;5072698;28;20131;-63
2023/04/22 10:31:22;;;;;;;14.30;9.07;;;16.30;99.90;;;;;;5074284;28;20319;-62
2023/04/22 10:33:48;;;;;;;16.45;9.30;;;16.00;99.90;;;;;;5062014;28;20066;-63
2023/04/22 10:36:13;;;;;;;16.27;10.73;;;15.70;99.90;;;;;;5074545;28;20024;-63
2023/04/22 10:38:41;;;;;;;14.57;9.37;;;15.60;99.90;;;;;;5074112;28;20726;-63
2023/04/22 10:41:13;;;;;;;13.77;9.13;;;15.70;99.90;;;;;;5074143;28;20421;-63
2023/04/22 10:43:59;;;;;;;13.45;8.95;;;15.60;99.90;;;;;;5072874;28;20035;-63
2023/04/22 10:46:38;;;;;;;17.17;9.68;;;15.40;99.90;;;;;;5074490;28;20305;-63
2023/04/22 10:49:11;;;;;;;13.98;9.98;;;15.60;99.90;;;;;;5061845;28;20411;-63
2023/04/22 10:51:46;;;;;;;18.40;10.30;;;15.70;99.90;;;;;;5072671;28;20385;-63
2023/04/22 10:54:27;;;;;;;15.73;10.68;;;15.70;99.90;;;;;;5074133;28;20051;-63
2023/04/22 10:57:10;;;;;;;14.80;9.73;;;15.70;99.90;;;;;;5074090;28;20020;-62
2023/04/22 10:59:46;;;;;;;18.33;11.82;;;15.40;99.90;;;;;;5074167;28;20033;-63
2023/04/22 11:02:13;;;;;;;18.70;11.10;;;15.40;99.90;;;;;;5073935;28;20025;-63
2023/04/22 11:04:39;;;;;;;18.70;11.88;;;15.20;99.90;;;;;;5073596;28;20028;-63
2023/04/22 11:07:19;;;;;;;17.73;11.57;;;14.90;99.90;;;;;;5073937;28;20384;-63
2023/04/22 11:09:52;;;;;;;18.30;11.88;;;14.70;99.90;;;;;;5073761;28;20044;-63
2023/04/22 11:12:40;;;;;;;16.33;11.32;;;14.60;99.90;;;;;;5074438;28;20016;-63
2023/04/22 11:15:14;;;;;;;16.30;10.15;;;14.50;99.90;;;;;;5061699;28;20484;-63
2023/04/22 11:17:43;;;;;;;17.88;11.30;;;14.40;99.90;;;;;;5073462;28;20701;-63
2023/04/22 11:20:11;;;;;;;17.10;11.23;;;14.40;99.90;;;;;;5074185;28;20111;-62
2023/04/22 11:22:40;;;;;;;19.88;11.10;;;14.40;99.90;;;;;;5074163;28;20323;-75
2023/04/22 11:25:08;;;;;;;19.90;11.82;;;14.30;99.90;;;;;;5059807;28;20077;-64
2023/04/22 11:27:35;;;;;;;18.88;12.05;;;14.40;99.90;;;;;;5074122;28;20017;-62
2023/04/22 11:30:02;;;;;;;19.65;12.43;;;14.30;99.90;;;;;;5071120;28;20454;-63
2023/04/22 11:32:28;;;;;;;18.83;11.82;;;14.20;99.90;;;;;;5073174;28;20032;-63
2023/04/22 11:34:54;;;;;;;21.73;12.15;;;14.10;99.90;;;;;;5073364;28;20021;-63
2023/04/22 11:37:20;;;;;;;19.05;11.18;;;14.10;99.90;;;;;;5074974;28;20039;-63
2023/04/22 11:39:46;;;;;;;19.77;11.13;;;14.10;99.90;;;;;;5077221;28;20029;-64
2023/04/22 11:42:12;;;;;;;20.53;11.90;;;14.20;99.90;;;;;;5077476;28;20028;-63
2023/04/22 11:44:39;;;;;;;20.35;11.52;;;14.10;99.90;;;;;;5077177;28;20702;-63
2023/04/22 11:47:04;;;;;;;17.30;11.52;;;14.30;99.90;;;;;;5077242;28;20036;-63
2023/04/22 11:49:33;;;;;;;17.03;11.43;;;14.30;99.90;;;;;;5077618;28;20032;-63
2023/04/22 11:51:59;;;;;;;18.75;10.65;;;14.30;99.90;;;;;;5076927;28;20265;-63
2023/04/22 11:54:32;;;;;;;18.20;10.93;;;14.20;99.90;;;;;;5076111;28;20021;-63
2023/04/22 11:57:14;;;;;;;17.92;11.18;;;14.20;99.90;;;;;;5076957;28;20016;-63
2023/04/22 11:59:40;;;;;;;15.70;10.48;;;14.30;99.90;;;;;;5076969;28;20110;-75
2023/04/22 12:02:06;;;;;;;19.35;10.57;;;14.20;99.90;;;;;;5076955;28;20066;-64
2023/04/22 12:04:36;;;;;;;19.75;11.02;;;14.20;99.90;;;;;;5076498;28;20029;-63
2023/04/22 12:07:02;;;;;;;16.92;10.88;;;14.20;99.90;;;;;;5077293;28;20074;-63
2023/04/22 12:09:28;;;;;;;18.45;11.15;;;14.20;99.90;;;;;;5075170;28;20474;-63
2023/04/22 12:11:54;;;;;;;20.63;11.70;;;14.00;99.90;;;;;;5076140;28;20057;-64
2023/04/22 12:14:19;;;;;;;18.47;12.13;;;13.90;99.90;;;;;;5075225;28;20021;-64
2023/04/22 12:16:45;;;;;;;21.67;12.07;;;13.80;99.90;;;;;;5077019;28;20408;-64
2023/04/22 12:19:11;;;;;;;19.77;12.70;;;13.60;99.90;;;;;;5076999;28;20032;-74
2023/04/22 12:21:36;;;;;;;18.80;11.87;;;13.50;99.90;;;;;;5075879;28;20111;-64
2023/04/22 12:24:09;;;;;;;20.97;11.83;;;13.60;99.90;;;;;;5077446;28;20059;-64
2023/04/22 12:26:36;;;;;;;17.70;11.02;;;13.60;99.90;;;;;;5076957;28;20036;-64
2023/04/22 12:29:03;;;;;;;23.08;12.93;;;13.60;99.90;;;;;;5077144;28;20431;-64
2023/04/22 12:31:28;;;;;;;18.10;11.95;;;13.60;99.90;;;;;;5076982;28;20025;-64
2023/04/22 12:33:55;;;;;;;17.93;12.03;;;13.70;99.90;;;;;;5077049;28;20411;-64
2023/04/22 12:36:21;;;;;;;20.15;12.80;;;13.70;99.90;;;;;;5076929;28;20037;-65